Time;durP1;ratioP1;P1;durP2;ratioP2;P2;SDS_P1;SDS_P2;PMS_P1;PMS_P2;Temp;Humidity;BMP_temperature;BMP_pressure;BME280_temperature;BME280_humidity;BME280_pressure;Samples;Min_cycle;Max_cycle;Signal;HPM_P1;HPM_P2
2024/02/27 00:46:28;;;;;;;2.20;1.70;;;17.80;65.80;;;;;;6298030;22;20709;-86
2024/02/27 00:49:00;;;;;;;1.80;1.70;;;17.70;65.90;;;;;;6163786;22;20156;-86
2024/02/27 00:51:50;;;;;;;4.70;1.67;;;17.70;65.90;;;;;;6186291;22;20180;-86
2024/02/27 00:54:20;;;;;;;2.72;1.65;;;17.70;66.00;;;;;;6139545;23;20156;-86
2024/02/27 00:56:52;;;;;;;1.88;1.45;;;17.80;65.80;;;;;;6114698;23;20607;-86
2024/02/27 00:59:22;;;;;;;1.92;1.73;;;17.80;66.10;;;;;;6091166;23;20166;-86
2024/02/27 01:02:04;;;;;;;2.22;1.83;;;17.60;66.10;;;;;;6084833;23;20163;-85
2024/02/27 01:04:45;;;;;;;2.47;1.85;;;17.70;66.10;;;;;;6085242;23;20167;-86
2024/02/27 01:07:33;;;;;;;1.98;1.70;;;17.70;66.20;;;;;;6050304;23;20157;-86
2024/02/27 01:10:08;;;;;;;2.17;1.73;;;17.60;66.20;;;;;;6032603;23;20177;-85
2024/02/27 01:13:12;;;;;;;2.50;1.90;;;17.60;66.10;;;;;;5994343;23;20214;-86
2024/02/27 01:15:44;;;;;;;2.08;1.65;;;17.60;66.10;;;;;;5935373;24;20161;-86
2024/02/27 01:18:13;;;;;;;1.63;1.40;;;17.70;65.80;;;;;;5935534;24;20177;-86
2024/02/27 01:20:53;;;;;;;3.17;2.00;;;17.70;66.00;;;;;;5935775;24;20176;-86
2024/02/27 01:23:29;;;;;;;2.05;1.85;;;17.70;66.20;;;;;;5908774;24;20176;-86
2024/02/27 01:26:15;;;;;;;2.42;1.70;;;17.60;66.00;;;;;;5833078;24;20169;-86
2024/02/27 01:29:04;;;;;;;2.30;1.60;;;17.70;66.20;;;;;;5832510;24;20503;-86
2024/02/27 01:32:09;;;;;;;2.28;1.65;;;17.60;66.20;;;;;;5818484;24;20195;-86
2024/02/27 01:34:43;;;;;;;2.25;1.80;;;17.60;66.10;;;;;;5799906;24;20232;-86
2024/02/27 01:37:22;;;;;;;1.85;1.60;;;17.60;66.20;;;;;;5763928;24;20167;-86
2024/02/27 01:39:58;;;;;;;2.60;1.90;;;17.60;66.20;;;;;;5809929;24;20187;-86
2024/02/27 01:42:42;;;;;;;2.35;1.83;;;17.60;66.30;;;;;;5779830;24;20160;-85
2024/02/27 01:45:14;;;;;;;2.97;1.90;;;17.60;66.30;;;;;;5721765;25;20205;-85
2024/02/27 01:47:52;;;;;;;3.15;1.90;;;17.60;66.30;;;;;;5728480;25;20273;-86
2024/02/27 01:50:45;;;;;;;;;;;;;;;;;;;;;
2024/02/27 01:53:24;;;;;;;2.17;1.90;;;17.60;66.10;;;;;;5803056;24;20179;-86
2024/02/27 01:56:11;;;;;;;2.08;1.80;;;17.60;66.30;;;;;;5861255;24;20199;-85
2024/02/27 01:58:44;;;;;;;2.03;1.77;;;17.60;66.50;;;;;;5833400;24;20167;-86
2024/02/27 02:04:29;;;;;;;2.10;1.70;;;17.60;66.10;;;;;;5748685;24;20165;-85
2024/02/27 02:38:53;;;;;;;2.15;1.70;;;17.60;66.50;;;;;;6286931;22;20239;-86
2024/02/27 02:41:31;;;;;;;2.28;1.80;;;17.50;66.50;;;;;;6210942;22;20191;-85
2024/02/27 02:44:14;;;;;;;2.10;1.80;;;17.60;66.20;;;;;;6149636;23;20625;-86
2024/02/27 02:46:45;;;;;;;3.28;2.10;;;17.50;66.30;;;;;;6109268;23;20279;-86
2024/02/27 03:13:23;;;;;;;3.53;2.10;;;17.50;66.30;;;;;;6075838;23;20178;-86
2024/02/27 03:23:07;;;;;;;2.38;1.90;;;17.50;66.30;;;;;;6162874;23;20151;-86
2024/02/27 03:25:41;;;;;;;2.55;2.00;;;17.50;66.20;;;;;;6163626;23;20507;-86
2024/02/27 03:28:33;;;;;;;2.53;1.85;;;17.50;66.90;;;;;;6082805;23;20153;-86
2024/02/27 03:31:11;;;;;;;1.90;1.52;;;17.50;66.50;;;;;;6052485;23;20237;-86
2024/02/27 03:33:55;;;;;;;2.47;1.83;;;17.50;66.60;;;;;;5984018;23;20164;-86
2024/02/27 03:36:23;;;;;;;2.47;2.05;;;17.50;66.60;;;;;;5954683;24;20493;-86
2024/02/27 03:39:01;;;;;;;2.90;1.77;;;17.50;66.60;;;;;;5932812;24;20160;-85
2024/02/27 03:41:59;;;;;;;2.72;2.05;;;17.40;66.50;;;;;;5932879;24;20698;-85
2024/02/27 03:44:45;;;;;;;3.08;2.10;;;17.50;66.60;;;;;;5906592;24;20707;-86
2024/02/27 03:47:46;;;;;;;2.83;2.00;;;17.40;66.70;;;;;;5936519;24;20204;-86
2024/02/27 03:50:42;;;;;;;3.85;1.98;;;17.50;66.60;;;;;;5903302;24;20197;-85
2024/02/27 03:54:14;;;;;;;2.70;1.88;;;17.50;66.50;;;;;;5881898;24;20158;-86
2024/02/27 03:56:47;;;;;;;2.50;2.20;;;17.50;66.60;;;;;;5832299;24;20154;-86
2024/02/27 03:59:21;;;;;;;2.75;2.00;;;17.40;66.60;;;;;;5761313;24;20161;-86
2024/02/27 04:02:12;;;;;;;2.90;2.00;;;17.40;66.70;;;;;;5772062;24;20165;-86
2024/02/27 04:04:41;;;;;;;3.45;2.17;;;17.40;66.50;;;;;;5709668;25;20624;-86
2024/02/27 04:20:56;;;;;;;2.78;2.00;;;17.40;66.60;;;;;;5812792;24;20242;-86
2024/02/27 04:23:32;;;;;;;2.67;1.80;;;17.40;66.60;;;;;;5827320;24;20163;-86
2024/02/27 05:01:47;;;;;;;2.22;1.65;;;17.40;66.70;;;;;;6297186;22;20204;-86
2024/02/27 05:04:17;;;;;;;3.03;2.25;;;17.40;67.00;;;;;;6169265;23;20193;-85
2024/02/27 05:06:50;;;;;;;2.67;2.00;;;17.40;66.90;;;;;;6145786;23;20162;-86
2024/02/27 05:09:47;;;;;;;2.85;2.17;;;17.30;66.80;;;;;;6171382;23;20155;-86
2024/02/27 05:33:35;;;;;;;2.53;1.92;;;17.30;66.80;;;;;;6205402;23;20285;-86
2024/02/27 05:36:27;;;;;;;2.80;1.88;;;17.30;66.70;;;;;;6079457;23;20150;-86
2024/02/27 05:38:58;;;;;;;2.40;2.05;;;17.30;66.80;;;;;;5996529;23;20159;-86
2024/02/27 05:41:51;;;;;;;3.40;2.10;;;17.30;66.90;;;;;;5988989;23;20158;-86
2024/02/27 05:47:27;;;;;;;2.00;1.80;;;17.30;66.80;;;;;;5999470;23;20233;-87
2024/02/27 05:50:07;;;;;;;2.28;1.90;;;17.30;66.70;;;;;;5971901;24;20194;-86
2024/02/27 05:52:55;;;;;;;3.70;2.30;;;17.30;66.90;;;;;;5939769;24;20182;-86
2024/02/27 05:55:27;;;;;;;3.03;2.03;;;17.30;66.90;;;;;;5987927;24;20156;-86
2024/02/27 05:58:01;;;;;;;2.97;2.08;;;17.30;66.80;;;;;;5988208;24;20170;-86
2024/02/27 06:00:46;;;;;;;;;;;;;;;;;;;;;
2024/02/27 06:03:26;;;;;;;3.20;2.30;;;17.30;66.70;;;;;;5934498;24;20195;-86
2024/02/27 06:06:00;;;;;;;2.60;2.03;;;17.30;66.40;;;;;;5859950;24;20168;-86
2024/02/27 06:08:31;;;;;;;2.60;2.03;;;17.30;66.70;;;;;;5938682;23;20633;-86
2024/02/27 06:11:05;;;;;;;3.05;2.17;;;17.40;66.60;;;;;;5996218;23;20197;-86
2024/02/27 06:13:31;;;;;;;2.72;2.25;;;17.40;66.50;;;;;;5950591;23;20162;-86
2024/02/27 06:16:24;;;;;;;3.03;2.03;;;17.30;66.60;;;;;;6043984;23;20155;-86
2024/02/27 06:20:00;;;;;;;2.13;1.92;;;17.30;66.80;;;;;;5991035;24;20155;-86
2024/02/27 06:25:29;;;;;;;3.05;2.20;;;17.30;66.80;;;;;;5921087;24;20153;-86
2024/02/27 06:42:48;;;;;;;2.35;1.98;;;17.30;66.80;;;;;;5962250;23;20235;-85
2024/02/27 07:05:04;;;;;;;2.70;2.10;;;17.30;66.50;;;;;;6109382;23;20168;-86
2024/02/27 07:08:19;;;;;;;5.85;2.17;;;17.40;66.40;;;;;;6020585;23;20153;-86
2024/02/27 07:10:55;;;;;;;3.63;2.10;;;17.40;66.10;;;;;;6046066;23;20236;-86
2024/02/27 07:13:27;;;;;;;2.50;1.90;;;17.50;65.70;;;;;;6044162;23;20668;-86
2024/02/27 07:16:16;;;;;;;3.75;2.45;;;17.50;65.60;;;;;;6019354;23;20636;-87
2024/02/27 07:56:40;;;;;;;2.80;2.20;;;17.90;63.50;;;;;;6278178;22;20164;-86
2024/02/27 07:59:20;;;;;;;2.72;1.90;;;17.90;63.60;;;;;;6100294;23;20246;-86
2024/02/27 08:02:02;;;;;;;3.33;2.30;;;17.80;64.20;;;;;;5957644;24;20163;-85
2024/02/27 08:04:46;;;;;;;3.35;2.20;;;17.80;64.60;;;;;;5882842;24;20240;-86
2024/02/27 08:08:16;;;;;;;2.58;2.13;;;17.80;64.40;;;;;;5862179;24;20177;-86
2024/02/27 08:11:45;;;;;;;2.92;2.08;;;17.80;64.00;;;;;;5844184;24;20206;-85
2024/02/27 08:17:55;;;;;;;3.58;1.90;;;17.90;63.00;;;;;;5690743;25;20257;-87
2024/02/27 08:21:04;;;;;;;;;;;;;;;;;;;;;
2024/02/27 08:27:57;;;;;;;;;;;;;;;;;;;;;
2024/02/27 08:31:03;;;;;;;3.03;2.15;;;17.80;63.80;;;;;;5723459;25;20260;-85
2024/02/27 08:33:44;;;;;;;2.13;1.90;;;17.80;63.80;;;;;;5703103;25;20268;-86
2024/02/27 08:36:44;;;;;;;2.20;1.80;;;17.80;63.90;;;;;;5696564;25;20635;-85
2024/02/27 08:39:42;;;;;;;2.88;2.10;;;17.90;65.00;;;;;;5647551;25;20168;-85
2024/02/27 08:42:12;;;;;;;2.92;2.38;;;17.80;63.60;;;;;;5719496;25;20173;-86
2024/02/27 08:44:40;;;;;;;2.53;1.95;;;17.90;64.00;;;;;;5732346;25;20158;-86
2024/02/27 08:47:19;;;;;;;4.05;2.10;;;17.90;63.30;;;;;;5745747;25;20161;-86
2024/02/27 08:49:48;;;;;;;2.63;2.00;;;18.10;62.50;;;;;;5765023;24;20244;-87
2024/02/27 08:52:26;;;;;;;;;;;;;;;;;;;;;
2024/02/27 08:55:14;;;;;;;3.67;2.17;;;18.10;62.90;;;;;;5793799;24;20250;-86
2024/02/27 08:57:52;;;;;;;3.22;2.10;;;18.10;62.80;;;;;;5822883;24;20238;-85
2024/02/27 10:43:33;;;;;;;2.75;2.10;;;18.20;62.90;;;;;;6281797;22;20692;-84
2024/02/27 10:46:32;;;;;;;2.40;2.03;;;18.20;63.60;;;;;;6128685;23;20159;-86
2024/02/27 11:41:02;;;;;;;2.30;1.83;;;18.30;63.40;;;;;;5982163;24;20206;-85
2024/02/27 11:43:51;;;;;;;;;;;;;;;;;;;;;
2024/02/27 11:46:53;;;;;;;2.65;2.15;;;18.40;62.40;;;;;;5926604;24;20266;-87
2024/02/27 11:50:13;;;;;;;;;;;;;;;;;;;;;
2024/02/27 11:52:42;;;;;;;2.80;2.00;;;18.40;62.60;;;;;;5922138;24;20229;-86
2024/02/27 11:55:21;;;;;;;2.63;2.10;;;18.30;62.80;;;;;;5866410;24;20157;-86
2024/02/27 11:57:50;;;;;;;4.05;1.92;;;18.30;62.50;;;;;;5855030;24;20162;-85
2024/02/27 12:00:48;;;;;;;3.15;1.90;;;18.40;62.80;;;;;;5858675;24;20162;-85
2024/02/27 12:03:37;;;;;;;3.70;1.92;;;18.40;63.00;;;;;;5829380;24;20171;-85
2024/02/27 12:06:08;;;;;;;4.07;2.05;;;18.30;63.80;;;;;;5801075;24;20589;-83
2024/02/27 12:09:41;;;;;;;2.58;1.90;;;18.30;63.00;;;;;;5800301;24;20164;-85
2024/02/27 12:12:26;;;;;;;2.67;1.90;;;18.20;64.10;;;;;;5868120;24;20260;-85
2024/02/27 15:37:53;;;;;;;4.75;2.00;;;18.30;64.00;;;;;;6277945;22;20209;-84
2024/02/27 15:40:22;;;;;;;2.45;1.70;;;18.30;63.20;;;;;;6161174;23;20174;-83
2024/02/27 15:42:52;;;;;;;2.42;1.65;;;18.40;63.20;;;;;;6114591;23;20154;-86
2024/02/27 15:45:24;;;;;;;4.80;1.80;;;18.40;63.30;;;;;;6115191;23;20150;-86
2024/02/27 15:48:59;;;;;;;2.50;2.08;;;18.40;63.40;;;;;;6080356;23;20164;-84
2024/02/27 15:51:22;;;;;;;2.13;1.88;;;18.30;62.40;;;;;;5998815;23;20185;-87
2024/02/27 15:53:48;;;;;;;3.88;1.90;;;18.40;62.70;;;;;;6012467;23;20155;-82
2024/02/27 15:56:31;;;;;;;3.30;1.95;;;18.50;62.60;;;;;;6011521;23;20300;-86
2024/02/27 15:59:26;;;;;;;3.90;1.90;;;18.40;62.50;;;;;;6013260;23;20154;-84
2024/02/27 16:06:05;;;;;;;;;;;;;;;;;;;;;
2024/02/27 16:09:33;;;;;;;2.20;1.48;;;18.40;63.80;;;;;;5921255;24;20209;-86
2024/02/27 16:12:19;;;;;;;2.70;1.55;;;18.40;64.00;;;;;;5812145;24;20229;-87
2024/02/27 16:15:31;;;;;;;4.22;1.73;;;18.50;64.30;;;;;;5852461;24;20742;-85
2024/02/27 16:18:28;;;;;;;7.50;1.80;;;18.50;64.40;;;;;;5894728;24;20166;-86
2024/02/27 16:21:31;;;;;;;6.10;1.73;;;18.40;64.70;;;;;;5874151;24;20583;-84
2024/02/27 16:24:43;;;;;;;9.73;1.75;;;18.50;65.10;;;;;;5878055;24;20150;-84
2024/02/27 16:32:02;;;;;;;;;;;;;;;;;;;;;
2024/02/27 17:14:43;;;;;;;8.77;2.30;;;18.60;65.60;;;;;;6005910;23;20202;-85
2024/02/27 17:17:34;;;;;;;;;;;;;;;;;;;;;
2024/02/27 17:20:14;;;;;;;8.57;1.65;;;18.60;65.80;;;;;;5854693;24;20185;-84
2024/02/27 17:23:04;;;;;;;6.18;1.88;;;18.60;66.30;;;;;;5827630;24;20178;-85
2024/02/27 17:25:36;;;;;;;5.57;2.20;;;18.70;66.70;;;;;;5928869;23;20193;-84
2024/02/27 17:28:08;;;;;;;3.90;1.77;;;18.60;66.50;;;;;;5994353;23;20166;-85
2024/02/27 17:30:54;;;;;;;8.68;2.00;;;18.60;67.20;;;;;;5992100;23;20240;-85
2024/02/27 17:33:38;;;;;;;6.15;1.88;;;18.60;67.00;;;;;;5986798;23;20242;-86
2024/02/27 17:36:23;;;;;;;4.28;1.88;;;18.60;66.70;;;;;;5954394;24;20156;-85
2024/02/27 17:39:44;;;;;;;;;;;;;;;;;;;;;
2024/02/27 17:42:40;;;;;;;;;;;;;;;;;;;;;
2024/02/27 17:45:13;;;;;;;3.75;1.50;;;18.60;66.10;;;;;;5857480;24;20182;-85
2024/02/27 17:47:39;;;;;;;6.68;2.05;;;18.60;66.10;;;;;;5856235;24;20181;-85
2024/02/27 17:50:33;;;;;;;4.57;1.95;;;18.60;66.10;;;;;;5878403;24;20234;-86
2024/02/27 17:53:53;;;;;;;4.20;2.00;;;18.60;65.80;;;;;;5842430;24;20226;-84
2024/02/27 17:56:34;;;;;;;4.57;2.10;;;18.60;65.40;;;;;;5818314;24;20540;-85
2024/02/27 17:59:05;;;;;;;3.50;1.70;;;18.60;65.40;;;;;;5812232;24;20172;-84
2024/02/27 18:01:49;;;;;;;5.22;1.80;;;18.60;65.50;;;;;;5763103;24;20165;-85
2024/02/27 18:04:35;;;;;;;4.80;1.90;;;18.60;65.20;;;;;;5790524;24;20183;-85
2024/02/27 18:07:07;;;;;;;5.38;2.00;;;18.60;66.10;;;;;;5789587;24;20671;-85
2024/02/27 18:09:39;;;;;;;3.83;1.92;;;18.70;65.80;;;;;;5841859;24;20245;-84
2024/02/27 18:12:08;;;;;;;3.08;1.65;;;18.60;66.90;;;;;;5825272;24;20210;-84
2024/02/27 18:14:35;;;;;;;4.50;1.95;;;18.60;67.50;;;;;;5801942;24;20499;-85
2024/02/27 18:17:12;;;;;;;4.80;1.85;;;18.50;66.40;;;;;;5825012;24;20162;-84
2024/02/27 18:20:22;;;;;;;2.75;2.08;;;18.60;66.00;;;;;;5847038;24;20153;-86
2024/02/27 18:22:44;;;;;;;4.10;1.67;;;18.60;65.80;;;;;;5785830;24;20156;-84
2024/02/27 18:25:25;;;;;;;3.40;1.75;;;18.60;66.40;;;;;;5768304;24;20704;-85
2024/02/27 18:28:20;;;;;;;2.35;1.98;;;18.60;65.90;;;;;;5760340;24;20191;-85
2024/02/27 19:08:02;;;;;;;3.17;1.80;;;18.60;65.10;;;;;;6275657;22;20135;-84
2024/02/27 19:10:32;;;;;;;4.22;1.73;;;18.60;66.30;;;;;;6156766;23;20236;-84
2024/02/27 19:13:00;;;;;;;2.47;1.90;;;18.60;66.00;;;;;;6184959;23;20205;-84
2024/02/27 19:15:26;;;;;;;3.60;1.90;;;18.60;66.00;;;;;;6162679;23;20688;-83
2024/02/27 19:17:51;;;;;;;1.95;1.42;;;18.60;66.00;;;;;;6187372;23;20174;-84
2024/02/27 19:20:17;;;;;;;1.98;1.50;;;18.60;66.70;;;;;;6189154;23;20154;-85
2024/02/27 19:22:45;;;;;;;2.80;1.58;;;18.60;66.30;;;;;;6165012;23;20624;-88
2024/02/27 19:25:13;;;;;;;2.08;1.63;;;18.60;66.60;;;;;;6115650;23;20207;-88
2024/02/27 19:27:40;;;;;;;3.85;1.27;;;18.60;66.60;;;;;;6115851;23;20200;-86
2024/02/27 19:30:08;;;;;;;2.90;1.80;;;18.50;66.30;;;;;;6164471;23;20201;-86
2024/02/27 19:32:35;;;;;;;1.88;1.40;;;18.50;66.10;;;;;;6164745;23;20146;-86
2024/02/27 19:35:03;;;;;;;2.85;1.67;;;18.60;66.00;;;;;;6189321;23;20138;-86
2024/02/27 19:37:30;;;;;;;2.13;1.75;;;18.60;65.40;;;;;;6164516;23;20150;-85
2024/02/27 19:39:56;;;;;;;2.25;1.40;;;18.60;65.30;;;;;;6189363;23;20138;-87
2024/02/27 19:42:23;;;;;;;2.70;1.50;;;18.50;66.10;;;;;;6243613;23;20161;-85
2024/02/27 19:44:55;;;;;;;1.77;1.38;;;18.60;65.80;;;;;;6220589;23;20153;-85
2024/02/27 19:47:24;;;;;;;2.00;1.65;;;18.50;66.10;;;;;;6170226;23;20149;-87
2024/02/27 19:49:55;;;;;;;2.90;1.40;;;18.60;65.80;;;;;;6169725;23;20160;-86
2024/02/27 19:52:24;;;;;;;2.20;1.50;;;18.60;65.80;;;;;;6144640;23;20585;-86
2024/02/27 19:54:50;;;;;;;2.00;1.55;;;18.60;65.70;;;;;;6169572;23;20146;-87
2024/02/27 19:57:20;;;;;;;2.03;1.70;;;18.50;65.70;;;;;;6220737;23;20188;-86
2024/02/27 19:59:47;;;;;;;2.03;1.42;;;18.60;65.60;;;;;;6197334;23;20171;-87
2024/02/27 20:02:14;;;;;;;1.77;1.30;;;18.50;65.60;;;;;;6188856;23;20154;-88
2024/02/27 20:04:40;;;;;;;3.53;1.35;;;18.60;65.70;;;;;;6164609;23;20262;-87
2024/02/27 20:08:07;;;;;;;2.20;1.30;;;18.50;65.20;;;;;;6139252;23;20206;-88
2024/02/27 20:10:23;;;;;;;2.17;1.40;;;18.50;66.60;;;;;;6061828;23;20649;-86
2024/02/27 20:12:51;;;;;;;2.28;1.50;;;18.50;66.00;;;;;;6068924;23;20196;-86
2024/02/27 20:15:19;;;;;;;1.27;1.10;;;18.50;65.90;;;;;;6001899;23;20176;-87
2024/02/27 20:17:47;;;;;;;2.42;1.48;;;18.50;65.90;;;;;;6025915;23;21001;-86
2024/02/27 20:20:14;;;;;;;1.88;1.48;;;18.50;66.20;;;;;;6096982;23;20617;-85
2024/02/27 20:22:40;;;;;;;1.80;1.50;;;18.50;65.20;;;;;;6074269;23;20283;-87
2024/02/27 20:25:07;;;;;;;3.83;1.30;;;18.50;65.40;;;;;;6073345;23;20157;-86
2024/02/27 20:27:35;;;;;;;2.88;1.40;;;18.50;66.10;;;;;;6073826;23;20164;-86
2024/02/27 20:30:02;;;;;;;1.50;1.27;;;18.60;65.80;;;;;;6047292;23;20167;-85
2024/02/27 20:32:29;;;;;;;2.30;1.58;;;18.50;65.40;;;;;;6077073;23;20472;-86
2024/02/27 20:34:54;;;;;;;1.77;1.20;;;18.60;65.20;;;;;;6051749;23;20183;-86
2024/02/27 20:37:20;;;;;;;2.38;1.30;;;18.50;66.20;;;;;;6052141;23;20529;-85
2024/02/27 20:39:46;;;;;;;1.48;1.38;;;18.50;66.60;;;;;;6051785;23;20160;-86
2024/02/27 20:42:13;;;;;;;2.10;1.50;;;18.40;66.00;;;;;;6076388;23;20156;-86
2024/02/27 20:44:39;;;;;;;1.58;1.27;;;18.50;65.80;;;;;;6077202;23;20156;-86
2024/02/27 20:47:06;;;;;;;1.95;1.33;;;18.50;65.50;;;;;;6157360;22;20484;-87
2024/02/27 20:49:33;;;;;;;1.45;1.30;;;18.40;66.20;;;;;;6200929;22;20152;-87
2024/02/27 20:51:59;;;;;;;1.85;1.45;;;18.50;66.20;;;;;;6226476;22;20187;-89
2024/02/27 20:54:25;;;;;;;1.73;1.42;;;18.40;66.70;;;;;;6201097;22;20145;-85
2024/02/27 20:56:52;;;;;;;2.10;1.50;;;18.40;66.50;;;;;;6200000;22;20450;-86
2024/02/27 20:59:18;;;;;;;2.13;1.33;;;18.40;67.30;;;;;;6200154;22;20156;-86
2024/02/27 21:01:45;;;;;;;1.92;1.30;;;18.40;66.80;;;;;;6199668;22;20149;-85
2024/02/27 21:04:10;;;;;;;1.95;1.23;;;18.40;66.80;;;;;;6224941;22;20188;-86
2024/02/27 21:06:37;;;;;;;1.73;1.30;;;18.30;67.70;;;;;;6224818;22;20145;-85
2024/02/27 21:09:06;;;;;;;1.73;1.40;;;18.30;67.60;;;;;;6199661;22;20487;-85
2024/02/27 21:11:32;;;;;;;1.40;1.17;;;18.30;67.90;;;;;;6189007;23;20196;-86
2024/02/27 21:13:58;;;;;;;1.55;1.30;;;18.30;68.00;;;;;;6194126;23;20161;-86
2024/02/27 21:16:24;;;;;;;1.27;1.17;;;18.30;67.60;;;;;;6169689;23;20157;-86
2024/02/27 21:18:50;;;;;;;1.70;1.35;;;18.30;67.80;;;;;;6194464;23;20138;-89
2024/02/27 21:21:15;;;;;;;1.40;1.30;;;18.30;68.00;;;;;;6246371;23;20133;-85
2024/02/27 21:23:42;;;;;;;1.88;1.33;;;18.30;67.60;;;;;;6170011;23;20592;-86
2024/02/27 21:26:09;;;;;;;1.63;1.10;;;18.30;67.90;;;;;;6219730;23;20568;-86
2024/02/27 21:28:39;;;;;;;2.55;1.20;;;18.30;68.20;;;;;;6169454;23;20241;-86
2024/02/27 21:31:10;;;;;;;2.45;1.20;;;18.30;68.00;;;;;;6143364;23;20193;-87
2024/02/27 21:33:36;;;;;;;1.30;1.15;;;18.20;67.70;;;;;;6170652;23;20156;-86
2024/02/27 21:36:04;;;;;;;1.30;1.20;;;18.20;67.80;;;;;;6169541;23;20145;-87
2024/02/27 21:38:31;;;;;;;1.67;1.40;;;18.30;67.80;;;;;;6168287;23;20153;-86
2024/02/27 21:41:01;;;;;;;1.95;1.15;;;18.20;67.70;;;;;;6193031;23;20585;-85
2024/02/27 21:43:28;;;;;;;2.63;1.33;;;18.30;67.90;;;;;;6194427;23;20541;-87
2024/02/27 21:45:56;;;;;;;1.13;1.00;;;18.30;68.00;;;;;;6169300;23;20244;-86
2024/02/27 21:48:25;;;;;;;2.25;1.42;;;18.20;68.00;;;;;;6170316;23;20481;-85
2024/02/27 21:50:51;;;;;;;2.25;1.38;;;18.20;67.80;;;;;;6193397;23;20649;-86
2024/02/27 21:53:18;;;;;;;1.60;1.35;;;18.20;68.20;;;;;;6194087;23;20145;-86
2024/02/27 21:55:49;;;;;;;1.98;1.42;;;18.20;68.30;;;;;;6168400;23;20160;-86
2024/02/27 21:58:16;;;;;;;1.77;1.38;;;18.20;67.90;;;;;;6167882;23;20180;-86
2024/02/27 22:00:42;;;;;;;1.52;1.20;;;18.20;68.10;;;;;;6168371;23;20600;-86
2024/02/27 22:03:12;;;;;;;1.17;1.08;;;18.20;68.20;;;;;;6219775;23;20149;-87
2024/02/27 22:05:37;;;;;;;3.53;1.35;;;18.20;68.00;;;;;;6168388;23;20236;-87
2024/02/27 22:08:05;;;;;;;2.35;1.35;;;18.10;68.00;;;;;;6169220;23;20566;-85
2024/02/27 22:10:35;;;;;;;1.70;1.40;;;18.20;68.20;;;;;;6194319;23;20185;-87
2024/02/27 22:13:01;;;;;;;1.42;1.30;;;18.10;68.30;;;;;;6168155;23;20624;-86
2024/02/27 22:15:28;;;;;;;1.70;1.30;;;18.10;68.10;;;;;;6169194;23;20251;-85
2024/02/27 22:17:54;;;;;;;1.30;1.20;;;18.10;68.30;;;;;;6169441;23;20145;-87
2024/02/27 22:20:24;;;;;;;1.63;1.35;;;18.10;68.50;;;;;;6194178;23;20576;-88
2024/02/27 22:22:51;;;;;;;1.60;1.50;;;18.00;68.00;;;;;;6168185;23;20713;-87
2024/02/27 22:25:21;;;;;;;2.05;1.27;;;18.10;68.50;;;;;;6194305;23;20153;-86
2024/02/27 22:27:50;;;;;;;1.95;1.35;;;18.00;68.30;;;;;;6168155;23;20153;-86
2024/02/27 22:30:17;;;;;;;1.23;1.13;;;18.10;68.10;;;;;;6193208;23;20173;-86
2024/02/27 22:32:43;;;;;;;2.78;1.33;;;18.10;68.60;;;;;;6219403;23;20195;-87
2024/02/27 22:35:09;;;;;;;1.60;1.23;;;18.00;68.20;;;;;;6193939;23;20613;-88
2024/02/27 22:37:36;;;;;;;1.60;1.20;;;18.00;68.30;;;;;;6169071;23;20160;-87
2024/02/27 22:40:02;;;;;;;1.67;1.20;;;18.00;68.50;;;;;;6193807;23;20137;-87
2024/02/27 22:42:29;;;;;;;4.07;1.60;;;18.00;68.70;;;;;;6194453;23;20134;-88
2024/02/27 22:44:56;;;;;;;1.35;1.23;;;18.00;68.70;;;;;;6194028;23;20168;-86
2024/02/27 22:47:22;;;;;;;2.00;1.30;;;18.00;68.80;;;;;;6218862;23;20126;-86
2024/02/27 22:49:48;;;;;;;1.52;1.23;;;17.90;68.60;;;;;;6169389;23;20232;-88
2024/02/27 22:52:14;;;;;;;1.40;1.30;;;17.90;68.80;;;;;;6168797;23;20516;-88
2024/02/27 22:54:40;;;;;;;1.60;1.42;;;17.90;68.80;;;;;;6167943;23;20145;-86
2024/02/27 22:57:08;;;;;;;1.30;1.20;;;17.90;68.70;;;;;;6193738;23;20163;-87
2024/02/27 22:59:37;;;;;;;1.60;1.30;;;18.00;68.60;;;;;;6219317;23;20553;-88
2024/02/27 23:02:03;;;;;;;1.88;1.45;;;17.90;68.60;;;;;;6169844;23;20149;-87
2024/02/27 23:04:29;;;;;;;1.08;0.98;;;17.90;68.40;;;;;;6168848;23;20149;-86
2024/02/27 23:06:56;;;;;;;1.65;1.38;;;17.90;68.30;;;;;;6169344;23;20481;-87
2024/02/27 23:09:21;;;;;;;1.40;1.17;;;17.90;68.60;;;;;;6193849;23;20133;-87
2024/02/27 23:11:47;;;;;;;1.55;1.20;;;17.90;68.60;;;;;;6176498;23;20650;-89
2024/02/27 23:14:13;;;;;;;1.48;1.38;;;17.80;68.40;;;;;;6193643;23;20470;-86
2024/02/27 23:16:39;;;;;;;1.40;1.27;;;17.90;68.90;;;;;;6168806;23;20150;-87
2024/02/27 23:19:07;;;;;;;1.75;1.45;;;17.90;68.60;;;;;;6193954;23;20146;-86
2024/02/27 23:21:33;;;;;;;1.73;1.27;;;17.80;68.60;;;;;;6193677;23;20153;-87
2024/02/27 23:23:59;;;;;;;1.65;1.40;;;17.90;68.30;;;;;;6143017;23;20154;-85
2024/02/27 23:26:25;;;;;;;2.22;1.40;;;17.90;68.50;;;;;;6193504;23;20150;-85
2024/02/27 23:28:55;;;;;;;1.80;1.45;;;17.90;68.80;;;;;;6218796;23;20145;-87
2024/02/27 23:31:21;;;;;;;1.17;1.05;;;17.80;68.50;;;;;;6168123;23;20264;-87
2024/02/27 23:33:47;;;;;;;2.15;1.50;;;17.90;68.50;;;;;;6193673;23;20259;-85
2024/02/27 23:36:14;;;;;;;1.42;1.30;;;17.80;68.40;;;;;;6218807;23;20130;-87
2024/02/27 23:38:40;;;;;;;2.08;1.45;;;17.80;68.50;;;;;;6193559;23;20224;-88
2024/02/27 23:41:11;;;;;;;2.10;1.60;;;17.80;68.70;;;;;;6193442;23;20154;-86
2024/02/27 23:43:38;;;;;;;1.35;1.00;;;17.90;68.80;;;;;;6143229;23;20168;-85
2024/02/27 23:46:04;;;;;;;3.25;1.38;;;17.80;68.50;;;;;;6193535;23;20153;-87
2024/02/27 23:48:34;;;;;;;1.80;1.27;;;17.80;68.70;;;;;;6218918;23;20138;-87
2024/02/27 23:51:03;;;;;;;1.65;1.30;;;17.80;68.40;;;;;;6143198;23;20185;-85
2024/02/27 23:53:29;;;;;;;1.65;1.55;;;17.80;68.40;;;;;;6217954;23;20134;-86
2024/02/27 23:55:58;;;;;;;2.15;1.55;;;17.90;68.10;;;;;;6193506;23;20536;-87
2024/02/27 23:58:27;;;;;;;1.30;1.20;;;17.90;68.10;;;;;;6192452;23;20181;-87
